Consuegra, Spain
Current Conditions -  °F | °C
As of 7:00 PM on Thursday 30 Oct 2014 (Local Time) from LEAO Reporting Station
Clear Clear  
Wind Chill: 68°   Ceiling: Unl
Heat Index: 68°   Visibility: 6mi
Dew Point: 46°   Wind: 3mph
Humidity: 46%   Direction: 50°NE
Pressure: 30.15"   Gusts: NA
Location:  39.46°N, 3.61°W
Report Text: LEAO 301800Z 05003KT CAVOK 20/08 Q1021
Loading
Personal Weather Stations






























Interactive Weather Map New forecast layout! Learn more

10-Day Weather Forecast

Advertisements
Track Severe Weather on mobile